createdAt,value
2023-01-07T00:02:14.010Z,8.90
2023-01-07T00:04:42.460Z,8.91
2023-01-07T00:07:11.941Z,8.89
2023-01-07T00:09:40.518Z,8.88
2023-01-07T00:12:08.632Z,8.85
2023-01-07T00:14:37.129Z,8.78
2023-01-07T00:17:05.645Z,8.75
2023-01-07T00:19:34.185Z,8.70
2023-01-07T00:22:02.650Z,8.66
2023-01-07T00:24:31.131Z,8.61
2023-01-07T00:26:59.303Z,8.59
2023-01-07T00:29:27.445Z,8.55
2023-01-07T00:31:57.124Z,8.53
2023-01-07T00:34:26.272Z,8.54
2023-01-07T00:37:16.453Z,8.53
2023-01-07T00:39:44.948Z,8.57
2023-01-07T00:42:32.261Z,8.59
2023-01-07T00:45:00.654Z,8.62
2023-01-07T00:47:29.054Z,8.63
2023-01-07T00:49:57.485Z,8.64
2023-01-07T00:52:25.890Z,8.64
2023-01-07T00:54:54.472Z,8.64
2023-01-07T00:57:22.893Z,8.61
2023-01-07T00:59:51.483Z,8.59
2023-01-07T01:02:20.308Z,8.55
2023-01-07T01:04:48.783Z,8.51
2023-01-07T01:07:17.375Z,8.46
2023-01-07T01:09:45.790Z,8.43
2023-01-07T01:12:14.251Z,8.38
2023-01-07T01:14:42.698Z,8.33
2023-01-07T01:17:11.563Z,8.31
2023-01-07T01:19:40.362Z,8.26
2023-01-07T01:22:11.222Z,8.23
2023-01-07T01:24:39.646Z,8.24
2023-01-07T01:27:08.094Z,8.22
2023-01-07T01:29:36.510Z,8.14
2023-01-07T01:32:05.100Z,8.13
2023-01-07T01:34:33.635Z,8.10
2023-01-07T01:37:01.670Z,8.07
2023-01-07T01:39:30.212Z,8.03
2023-01-07T01:42:01.459Z,8.00
2023-01-07T01:44:56.411Z,8.01
2023-01-07T01:47:45.838Z,7.99
2023-01-07T01:50:34.313Z,7.97
2023-01-07T01:53:25.433Z,7.98
2023-01-07T01:56:12.560Z,7.99
2023-01-07T01:58:47.132Z,7.98
2023-01-07T02:05:22.591Z,7.92
2023-01-07T02:07:51.079Z,7.90
2023-01-07T02:10:23.849Z,7.90
2023-01-07T02:13:07.351Z,7.89
2023-01-07T02:16:05.470Z,7.90
2023-01-07T02:18:36.334Z,7.91
2023-01-07T02:21:43.031Z,7.89
2023-01-07T02:24:58.505Z,7.87
2023-01-07T02:27:51.155Z,7.88
2023-01-07T02:31:04.213Z,7.88
2023-01-07T02:34:20.634Z,7.88
2023-01-07T02:37:15.772Z,7.89
2023-01-07T02:40:09.913Z,7.90
2023-01-07T02:43:35.755Z,7.94
2023-01-07T02:46:33.537Z,8.00
2023-01-07T02:49:06.174Z,8.05
2023-01-07T02:51:42.360Z,8.09
2023-01-07T02:54:22.868Z,8.13
2023-01-07T02:57:21.152Z,8.16
2023-01-07T03:00:12.024Z,8.18
2023-01-07T03:03:16.579Z,8.23
2023-01-07T03:05:56.936Z,8.27
2023-01-07T03:08:44.407Z,8.34
2023-01-07T03:11:13.469Z,8.39
2023-01-07T03:14:11.827Z,8.44
2023-01-07T03:16:54.491Z,8.48
2023-01-07T03:19:36.341Z,8.52
2023-01-07T03:22:09.003Z,8.54
2023-01-07T03:24:37.725Z,8.58
2023-01-07T03:27:09.491Z,8.60
2023-01-07T03:29:37.979Z,8.62
2023-01-07T03:32:33.784Z,8.65
2023-01-07T03:35:02.032Z,8.64
2023-01-07T03:37:30.676Z,8.65
2023-01-07T03:39:59.356Z,8.67
2023-01-07T03:42:40.275Z,8.63
2023-01-07T03:45:22.204Z,8.62
2023-01-07T03:47:53.518Z,8.62
2023-01-07T03:50:22.457Z,8.61
2023-01-07T03:52:51.890Z,8.61
2023-01-07T03:55:20.427Z,8.57
2023-01-07T03:57:48.898Z,8.58
2023-01-07T04:00:18.127Z,8.57
2023-01-07T04:02:46.776Z,8.55
2023-01-07T04:05:15.284Z,8.53
2023-01-07T04:07:43.508Z,8.54
2023-01-07T04:10:12.513Z,8.57
2023-01-07T04:12:41.104Z,8.57
2023-01-07T04:15:09.789Z,8.59
2023-01-07T04:17:37.972Z,8.64
2023-01-07T04:20:08.013Z,8.68
2023-01-07T04:22:36.610Z,8.72
2023-01-07T04:25:05.350Z,8.75
2023-01-07T04:27:33.787Z,8.80
2023-01-07T04:30:01.938Z,8.85
2023-01-07T04:32:30.549Z,8.88
2023-01-07T04:34:59.103Z,8.92
2023-01-07T04:37:27.519Z,8.96
2023-01-07T04:39:56.069Z,8.97
2023-01-07T04:42:24.497Z,9.00
2023-01-07T04:44:53.424Z,9.02
2023-01-07T04:47:21.589Z,9.02
2023-01-07T04:49:50.032Z,9.02
2023-01-07T04:52:18.489Z,9.05
2023-01-07T04:54:46.927Z,9.05
2023-01-07T04:57:15.365Z,9.07
2023-01-07T04:59:43.870Z,9.05
2023-01-07T05:02:12.370Z,9.06
2023-01-07T05:04:40.963Z,9.04
2023-01-07T05:07:09.697Z,9.09
2023-01-07T05:09:37.914Z,9.15
2023-01-07T05:12:06.693Z,9.14
2023-01-07T05:14:35.328Z,9.13
2023-01-07T05:17:03.494Z,9.16
2023-01-07T05:19:31.611Z,9.16
2023-01-07T05:22:00.978Z,9.18
2023-01-07T05:24:29.728Z,9.19
2023-01-07T05:26:58.105Z,9.20
2023-01-07T05:29:26.577Z,9.21
2023-01-07T05:31:55.046Z,9.22
2023-01-07T05:34:23.472Z,9.25
2023-01-07T05:36:51.972Z,9.26
2023-01-07T05:39:20.410Z,9.32
2023-01-07T05:41:48.966Z,9.29
2023-01-07T05:44:17.154Z,9.28
2023-01-07T05:46:45.812Z,9.30
2023-01-07T05:49:14.114Z,9.33
2023-01-07T05:51:42.229Z,9.32
2023-01-07T05:54:10.695Z,9.33
2023-01-07T05:56:38.858Z,9.32
2023-01-07T05:59:07.023Z,9.32
2023-01-07T06:01:35.520Z,9.34
2023-01-07T06:04:03.673Z,9.34
2023-01-07T06:06:31.844Z,9.35
2023-01-07T06:09:00.647Z,9.33
2023-01-07T06:11:30.334Z,9.34
2023-01-07T06:13:58.777Z,9.32
2023-01-07T06:16:26.871Z,9.30
2023-01-07T06:18:55.322Z,9.29
2023-01-07T06:21:23.814Z,9.28
2023-01-07T06:23:52.440Z,9.25
2023-01-07T06:26:21.227Z,9.18
2023-01-07T06:28:49.955Z,9.16
2023-01-07T06:31:18.138Z,9.11
2023-01-07T06:33:46.590Z,9.11
2023-01-07T06:36:14.755Z,9.09
2023-01-07T06:38:42.809Z,9.06
2023-01-07T06:41:11.375Z,9.02
2023-01-07T06:43:39.934Z,9.01
2023-01-07T06:46:08.698Z,9.02
2023-01-07T06:48:37.118Z,9.00
2023-01-07T06:51:05.896Z,9.00
2023-01-07T06:53:34.364Z,8.96
2023-01-07T06:56:02.754Z,8.96
2023-01-07T06:58:31.308Z,8.91
2023-01-07T07:01:06.726Z,8.89
2023-01-07T07:03:35.283Z,8.90
2023-01-07T07:06:03.717Z,8.88
2023-01-07T07:08:32.108Z,8.86
2023-01-07T07:11:00.673Z,8.81
2023-01-07T07:13:29.210Z,8.78
2023-01-07T07:15:57.618Z,8.75
2023-01-07T07:18:26.937Z,8.71
2023-01-07T07:20:55.031Z,8.72
2023-01-07T07:23:23.467Z,8.70
2023-01-07T07:25:51.548Z,8.67
2023-01-07T07:28:20.081Z,8.64
2023-01-07T07:30:48.579Z,8.63
2023-01-07T07:33:19.366Z,8.63
2023-01-07T07:35:48.461Z,8.59
2023-01-07T07:38:18.002Z,8.62
2023-01-07T07:40:47.185Z,8.61
2023-01-07T07:43:16.386Z,8.60
2023-01-07T07:45:44.975Z,8.60
2023-01-07T07:48:16.433Z,8.61
2023-01-07T07:50:44.898Z,8.63
2023-01-07T07:53:15.161Z,8.64
2023-01-07T07:55:43.649Z,8.66
2023-01-07T07:58:12.339Z,8.69
2023-01-07T08:00:41.003Z,8.72
2023-01-07T08:03:09.580Z,8.74
2023-01-07T08:05:41.280Z,8.75
2023-01-07T08:08:11.426Z,8.76
2023-01-07T08:10:42.600Z,8.78
2023-01-07T08:13:11.364Z,8.81
2023-01-07T08:15:39.839Z,8.80
2023-01-07T08:18:11.308Z,8.82
2023-01-07T08:20:39.962Z,8.83
2023-01-07T08:23:12.222Z,8.86
2023-01-07T08:25:40.839Z,8.89
2023-01-07T08:28:09.347Z,8.88
2023-01-07T08:30:37.892Z,8.91
2023-01-07T08:33:09.581Z,8.90
2023-01-07T08:35:38.081Z,8.94
2023-01-07T08:38:10.842Z,8.96
2023-01-07T08:40:39.411Z,8.97
2023-01-07T08:43:08.961Z,9.00
2023-01-07T08:45:37.637Z,9.02
2023-01-07T08:48:06.675Z,9.05
2023-01-07T08:50:35.415Z,9.10
2023-01-07T08:53:03.885Z,9.15
2023-01-07T08:55:32.389Z,9.21
2023-01-07T08:58:00.916Z,9.26
2023-01-07T09:00:29.580Z,9.31
2023-01-07T09:02:57.755Z,9.37
2023-01-07T09:05:26.411Z,9.40
2023-01-07T09:07:55.504Z,9.44
2023-01-07T09:10:24.245Z,9.48
2023-01-07T09:12:52.991Z,9.52
2023-01-07T09:15:21.527Z,9.58
2023-01-07T09:17:50.075Z,9.63
2023-01-07T09:20:18.858Z,9.67
2023-01-07T09:22:47.330Z,9.75
2023-01-07T09:25:15.930Z,9.82
2023-01-07T09:27:45.653Z,9.92
2023-01-07T09:30:14.543Z,9.92
2023-01-07T09:32:44.773Z,9.94
2023-01-07T09:35:15.537Z,9.96
2023-01-07T09:37:43.999Z,9.97
2023-01-07T09:40:30.291Z,9.97
2023-01-07T09:43:59.732Z,9.98
2023-01-07T09:46:31.476Z,10.01
2023-01-07T09:49:03.949Z,10.05
2023-01-07T09:51:40.501Z,10.13
2023-01-07T09:54:29.500Z,10.20
2023-01-07T09:56:57.980Z,10.31
2023-01-07T09:59:26.424Z,10.36
2023-01-07T10:02:45.581Z,10.42
2023-01-07T10:05:34.746Z,10.48
2023-01-07T10:08:30.771Z,10.53
2023-01-07T10:11:16.319Z,10.61
2023-01-07T10:14:26.722Z,10.67
2023-01-07T10:17:22.061Z,10.75
2023-01-07T10:20:37.615Z,10.76
2023-01-07T10:23:26.076Z,10.78
2023-01-07T10:26:01.550Z,10.78
2023-01-07T10:28:52.347Z,10.76
2023-01-07T10:31:27.227Z,10.75
2023-01-07T10:33:57.682Z,10.77
2023-01-07T10:36:56.664Z,10.79
2023-01-07T10:39:53.216Z,10.78
2023-01-07T10:43:28.512Z,10.79
2023-01-07T10:46:24.290Z,10.81
2023-01-07T10:49:30.011Z,10.86
2023-01-07T10:52:33.329Z,10.81
2023-01-07T10:55:19.748Z,10.78
2023-01-07T10:57:49.911Z,10.79
2023-01-07T11:00:20.241Z,10.76
2023-01-07T11:02:55.190Z,10.74
2023-01-07T11:05:25.033Z,10.68
2023-01-07T11:07:58.328Z,10.72
2023-01-07T11:10:30.669Z,10.73
2023-01-07T11:13:17.918Z,10.76
2023-01-07T11:15:53.469Z,10.80
2023-01-07T11:18:34.652Z,10.90
2023-01-07T11:21:03.237Z,10.96
2023-01-07T11:23:42.750Z,11.03
2023-01-07T11:26:31.294Z,11.03
2023-01-07T11:29:17.785Z,11.10
2023-01-07T11:31:52.298Z,11.08
2023-01-07T11:34:53.285Z,11.00
2023-01-07T11:37:39.953Z,11.10
2023-01-07T11:40:14.064Z,11.15
2023-01-07T11:42:58.590Z,11.19
2023-01-07T11:45:39.744Z,11.17
2023-01-07T11:48:08.349Z,11.17
2023-01-07T11:50:38.885Z,11.18
2023-01-07T11:53:16.075Z,11.19
2023-01-07T11:56:12.224Z,11.23
2023-01-07T11:58:51.257Z,11.28
2023-01-07T12:01:25.638Z,11.32
2023-01-07T12:03:54.229Z,11.42
2023-01-07T12:06:34.196Z,11.45
2023-01-07T12:09:26.917Z,11.50
2023-01-07T12:12:00.817Z,11.62
2023-01-07T12:14:34.257Z,11.65
2023-01-07T12:17:21.466Z,11.72
2023-01-07T12:20:29.711Z,11.74
2023-01-07T12:23:31.594Z,11.73
2023-01-07T12:26:25.255Z,11.73
2023-01-07T12:29:47.060Z,11.72
2023-01-07T12:32:52.648Z,11.70
2023-01-07T12:35:31.632Z,11.70
2023-01-07T12:38:54.479Z,11.66
2023-01-07T12:41:38.368Z,11.64
2023-01-07T12:44:22.217Z,11.64
2023-01-07T12:47:30.504Z,11.67
2023-01-07T12:50:42.740Z,11.63
2023-01-07T12:53:24.270Z,11.59
2023-01-07T12:56:45.046Z,11.53
2023-01-07T12:59:46.633Z,11.53
2023-01-07T13:02:32.534Z,11.53
2023-01-07T13:05:29.225Z,11.51
2023-01-07T13:08:23.574Z,11.48
2023-01-07T13:10:59.458Z,11.48
2023-01-07T13:13:40.872Z,11.45
2023-01-07T13:16:13.226Z,11.43
2023-01-07T13:18:41.724Z,11.40
2023-01-07T13:21:16.263Z,11.40
2023-01-07T13:24:21.037Z,11.37
2023-01-07T13:27:29.860Z,11.32
2023-01-07T13:30:28.123Z,11.28
2023-01-07T13:33:16.433Z,11.24
2023-01-07T13:36:23.966Z,11.24
2023-01-07T13:39:08.690Z,11.23
2023-01-07T13:42:20.034Z,11.18
2023-01-07T13:45:12.217Z,11.14
2023-01-07T13:47:47.694Z,11.13
2023-01-07T13:50:36.020Z,11.10
2023-01-07T13:53:16.276Z,11.08
2023-01-07T13:55:47.183Z,11.07
2023-01-07T13:58:30.506Z,11.02
2023-01-07T14:01:15.087Z,11.00
2023-01-07T14:03:58.895Z,10.99
2023-01-07T14:06:46.966Z,10.97
2023-01-07T14:09:29.156Z,10.97
2023-01-07T14:12:05.924Z,10.94
2023-01-07T14:14:53.028Z,10.94
2023-01-07T14:17:38.178Z,10.95
2023-01-07T14:20:25.755Z,10.95
2023-01-07T14:23:24.484Z,10.95
2023-01-07T14:26:16.679Z,10.92
2023-01-07T14:28:57.542Z,10.92
2023-01-07T14:31:31.529Z,10.92
2023-01-07T14:34:26.953Z,10.92
2023-01-07T14:37:05.014Z,10.90
2023-01-07T14:39:43.079Z,10.88
2023-01-07T14:42:20.349Z,10.87
2023-01-07T14:44:52.987Z,10.87
2023-01-07T14:47:46.106Z,10.86
2023-01-07T14:50:46.777Z,10.86
2023-01-07T14:53:46.767Z,10.86
2023-01-07T14:56:15.235Z,10.84
2023-01-07T14:59:34.166Z,10.83
2023-01-07T15:02:39.135Z,10.83
2023-01-07T15:05:19.218Z,10.81
2023-01-07T15:08:17.979Z,10.80
2023-01-07T15:11:06.142Z,10.78
2023-01-07T15:13:59.884Z,10.78
2023-01-07T15:16:29.984Z,10.84
2023-01-07T15:18:58.767Z,10.84
2023-01-07T15:22:07.899Z,10.84
2023-01-07T15:24:50.487Z,10.86
2023-01-07T15:27:19.071Z,10.93
2023-01-07T15:30:26.064Z,10.95
2023-01-07T15:33:21.471Z,11.03
2023-01-07T15:35:50.190Z,10.96
2023-01-07T15:38:44.776Z,10.95
2023-01-07T15:41:32.012Z,10.94
2023-01-07T15:44:03.562Z,10.91
2023-01-07T15:46:33.533Z,10.91
2023-01-07T15:49:29.553Z,10.95
2023-01-07T15:52:02.510Z,10.94
2023-01-07T15:54:32.867Z,10.97
2023-01-07T15:57:18.561Z,10.96
2023-01-07T15:59:51.000Z,10.96
2023-01-07T16:02:30.952Z,10.97
2023-01-07T16:05:02.523Z,10.97
2023-01-07T16:07:36.211Z,11.05
2023-01-07T16:10:05.319Z,11.07
2023-01-07T16:12:38.062Z,11.07
2023-01-07T16:15:38.129Z,11.10
2023-01-07T16:18:19.448Z,11.01
2023-01-07T16:21:09.609Z,10.98
2023-01-07T16:23:39.198Z,11.01
2023-01-07T16:26:10.850Z,10.97
2023-01-07T16:28:47.880Z,10.90
2023-01-07T16:31:21.276Z,10.89
2023-01-07T16:33:59.146Z,10.85
2023-01-07T16:36:33.165Z,10.85
2023-01-07T16:39:19.517Z,10.87
2023-01-07T16:41:47.769Z,10.88
2023-01-07T16:44:45.270Z,10.89
2023-01-07T16:47:22.811Z,10.89
2023-01-07T16:49:52.976Z,10.87
2023-01-07T16:52:24.686Z,10.86
2023-01-07T16:54:53.497Z,10.85
2023-01-07T16:57:40.231Z,10.82
2023-01-07T17:00:20.253Z,10.80
2023-01-07T17:02:55.716Z,10.78
2023-01-07T17:05:30.542Z,10.79
2023-01-07T17:11:08.085Z,10.78
2023-01-07T17:13:45.167Z,10.77
2023-01-07T17:16:30.237Z,10.88
2023-01-07T17:19:23.298Z,10.84
2023-01-07T17:21:52.190Z,10.81
2023-01-07T17:24:44.602Z,10.82
2023-01-07T17:27:25.720Z,10.82
2023-01-07T17:29:54.372Z,10.79
2023-01-07T17:32:24.377Z,10.81
2023-01-07T17:34:52.820Z,10.76
2023-01-07T17:37:21.308Z,10.75
2023-01-07T17:39:51.341Z,10.77
2023-01-07T17:42:51.237Z,10.77
2023-01-07T17:45:26.439Z,10.75
2023-01-07T17:47:56.073Z,10.75
2023-01-07T17:50:24.672Z,10.77
2023-01-07T17:52:55.918Z,10.74
2023-01-07T17:55:30.272Z,10.74
2023-01-07T17:58:00.337Z,10.76
2023-01-07T18:00:31.260Z,10.77
2023-01-07T18:02:59.886Z,10.79
2023-01-07T18:05:28.513Z,10.84
2023-01-07T18:07:56.953Z,10.79
2023-01-07T18:10:50.636Z,10.76
2023-01-07T18:13:18.107Z,10.75
2023-01-07T18:15:46.640Z,10.75
2023-01-07T18:18:22.475Z,10.72
2023-01-07T18:20:50.704Z,10.74
2023-01-07T18:23:19.179Z,10.81
2023-01-07T18:25:47.869Z,10.78
2023-01-07T18:28:16.426Z,10.77
2023-01-07T18:30:44.965Z,10.84
2023-01-07T18:33:14.020Z,10.77
2023-01-07T18:35:42.464Z,10.81
2023-01-07T18:38:15.055Z,10.74
2023-01-07T18:40:43.864Z,10.72
2023-01-07T18:43:18.259Z,10.73
2023-01-07T18:45:48.117Z,10.75
2023-01-07T18:48:18.512Z,10.73
2023-01-07T18:50:49.410Z,10.74
2023-01-07T18:53:19.727Z,10.74
2023-01-07T18:55:48.270Z,10.71
2023-01-07T18:58:17.423Z,10.73
2023-01-07T19:00:46.359Z,10.71
2023-01-07T19:03:14.488Z,10.73
2023-01-07T19:05:42.565Z,10.72
2023-01-07T19:08:10.739Z,10.76
2023-01-07T19:10:44.820Z,10.73
2023-01-07T19:13:13.262Z,10.69
2023-01-07T19:15:42.070Z,10.70
2023-01-07T19:18:10.854Z,10.70
2023-01-07T19:20:38.952Z,10.69
2023-01-07T19:23:07.362Z,10.63
2023-01-07T19:25:35.742Z,10.51
2023-01-07T19:28:04.204Z,10.49
2023-01-07T19:30:32.746Z,10.48
2023-01-07T19:33:01.085Z,10.47
2023-01-07T19:35:29.571Z,10.47
2023-01-07T19:37:58.068Z,10.39
2023-01-07T19:40:26.716Z,10.41
2023-01-07T19:42:55.279Z,10.40
2023-01-07T19:45:23.809Z,10.36
2023-01-07T19:47:52.295Z,10.32
2023-01-07T19:50:20.758Z,10.28
2023-01-07T19:52:49.276Z,10.18
2023-01-07T19:55:17.830Z,10.18
2023-01-07T19:57:46.410Z,10.15
2023-01-07T20:00:15.017Z,10.13
2023-01-07T20:02:43.734Z,10.10
2023-01-07T20:05:12.286Z,10.01
2023-01-07T20:07:40.549Z,9.94
2023-01-07T20:10:09.749Z,9.97
2023-01-07T20:12:38.038Z,9.91
2023-01-07T20:15:06.759Z,9.91
2023-01-07T20:17:35.069Z,9.84
2023-01-07T20:20:03.922Z,9.81
2023-01-07T20:22:32.429Z,9.77
2023-01-07T20:25:00.947Z,9.72
2023-01-07T20:27:29.366Z,9.70
2023-01-07T20:29:57.816Z,9.69
2023-01-07T20:32:26.459Z,9.62
2023-01-07T20:34:54.544Z,9.55
2023-01-07T20:37:24.011Z,9.56
2023-01-07T20:39:52.221Z,9.55
2023-01-07T20:42:20.889Z,9.55
2023-01-07T20:44:51.708Z,9.53
2023-01-07T20:47:19.923Z,9.56
2023-01-07T20:49:48.478Z,9.50
2023-01-07T20:52:16.560Z,9.50
2023-01-07T20:54:47.212Z,9.49
2023-01-07T20:57:15.890Z,9.45
2023-01-07T20:59:44.030Z,9.45
2023-01-07T21:02:17.859Z,9.41
2023-01-07T21:04:46.466Z,9.40
2023-01-07T21:07:14.631Z,9.36
2023-01-07T21:09:44.771Z,9.28
2023-01-07T21:12:12.786Z,9.31
2023-01-07T21:14:41.292Z,9.30
2023-01-07T21:17:09.775Z,9.27
2023-01-07T21:19:40.291Z,9.23
2023-01-07T21:22:08.952Z,9.24
2023-01-07T21:24:37.931Z,9.21
2023-01-07T21:27:06.413Z,9.16
2023-01-07T21:29:34.853Z,9.14
2023-01-07T21:32:04.317Z,9.16
2023-01-07T21:34:32.873Z,9.10
2023-01-07T21:37:01.350Z,9.11
2023-01-07T21:39:29.436Z,9.06
2023-01-07T21:41:57.975Z,9.03
2023-01-07T21:44:26.521Z,8.99
2023-01-07T21:46:54.733Z,8.95
2023-01-07T21:49:24.884Z,8.86
2023-01-07T21:51:53.382Z,8.86
2023-01-07T21:54:22.017Z,8.85
2023-01-07T21:56:50.685Z,8.86
2023-01-07T21:59:20.636Z,8.86
2023-01-07T22:01:50.247Z,8.87
2023-01-07T22:04:18.574Z,8.88
2023-01-07T22:06:47.311Z,8.85
2023-01-07T22:09:17.471Z,8.85
2023-01-07T22:11:46.057Z,8.80
2023-01-07T22:14:17.953Z,8.84
2023-01-07T22:16:49.012Z,8.85
2023-01-07T22:19:17.292Z,8.86
2023-01-07T22:21:45.499Z,8.85
2023-01-07T22:24:14.463Z,8.85
2023-01-07T22:26:43.037Z,8.83
2023-01-07T22:29:11.536Z,8.82
2023-01-07T22:31:40.286Z,8.85
2023-01-07T22:34:09.801Z,8.84
2023-01-07T22:37:02.731Z,8.82
2023-01-07T22:39:36.985Z,8.84
2023-01-07T22:42:31.242Z,8.80
2023-01-07T22:45:33.546Z,8.81
2023-01-07T22:48:01.972Z,8.75
2023-01-07T22:50:30.114Z,8.78
2023-01-07T22:52:58.629Z,8.79
2023-01-07T22:55:27.108Z,8.78
2023-01-07T22:57:55.600Z,8.81
2023-01-07T23:01:09.553Z,8.81
2023-01-07T23:03:38.315Z,8.82
2023-01-07T23:06:07.395Z,8.83
2023-01-07T23:08:35.549Z,8.83
2023-01-07T23:11:05.075Z,8.83
2023-01-07T23:13:33.853Z,8.80
2023-01-07T23:16:07.499Z,8.80
2023-01-07T23:18:36.141Z,8.77
2023-01-07T23:21:06.483Z,8.78
2023-01-07T23:23:34.948Z,8.70
2023-01-07T23:26:03.446Z,8.73
2023-01-07T23:28:31.826Z,8.70
2023-01-07T23:31:03.412Z,8.70
2023-01-07T23:33:31.981Z,8.73
2023-01-07T23:36:10.720Z,8.71
2023-01-07T23:38:39.480Z,8.72
2023-01-07T23:41:10.492Z,8.74
2023-01-07T23:43:39.425Z,8.77
2023-01-07T23:46:09.277Z,8.75
2023-01-07T23:48:39.187Z,8.74
2023-01-07T23:51:10.649Z,8.73
2023-01-07T23:53:39.379Z,8.71
2023-01-07T23:56:08.900Z,8.67
2023-01-07T23:58:37.849Z,8.65
